Auburn Junction, Indiana
Current Conditions -  °F | °C
As of 3:55 PM on Thursday 18 Dec 2014 (Local Time) from KGWB Reporting Station
Overcast Overcast  
Wind Chill: -4°   Ceiling: 1300
Heat Index: -1°   Visibility: 10mi
Dew Point: -5°   Wind: 5mph
Humidity: 75%   Direction: 260°W
Pressure: 30.2"   Gusts: NA
Location:  41.3419°N, 85.0357°W
Report Text: KGWB 182055Z AUTO 26004KT 10SM OVC013 M01/M05 A3020 RMK AO2
Loading
Personal Weather Stations






























Interactive Weather Map New forecast layout! Learn more

10-Day Weather Forecast

Advertisements
Track Severe Weather on mobile